ドレスデン の空港の天気 - METARとTAF

ドレスデン空港 ( EDDC / DRS ) - ドイツ ドレスデン
飛行場実況気象(Metar)
観測時間07/19 05:20 CEST (07/19 03:20 UTC)
風向・風速南南西 4m/s
視程10km以上
天気現象
なし
気温17℃
湿度68%
気圧1013hPa
METAREDDC 190320Z 20007KT CAVOK 17/11 Q1013
過去の天気等 Google飛行場航空写真 Wunderground天気予報

過去48時間のMETAR

飛行場予報(TAF)
発表時間: 7/19 01:00 CEST (7/18 23:00 UTC)
予報対象時間: 19日2時 CEST ~ 20日2時 CEST
風向・風速南西 3m/s
視程10km以上
なし
19日9時 CEST ~ 19日13時 CEST に 確率 30% で一時的に
全天の8割程度の雲 雲底高度 370m
19日18時 CEST ~ 19日21時 CEST に徐々に
風向・風速不定 2m/s
TAF EDDC 182300Z 1900/1924 23005KT CAVOK
PROB30 TEMPO 1907/1911 BKN012
BECMG 1916/1919 VRB03KT